Contreras, New Mexico
Current Conditions -  °F | °C
As of 3:55 AM on Wednesday 22 Oct 2014 (Local Time) from KONM Reporting Station
Scattered Clouds Scattered Clouds  
Wind Chill: 53°   Ceiling: Unl
Heat Index: 53°   Visibility: 10mi
Dew Point: 50°   Wind: 8mph
Humidity: 91%   Direction: 180°S
Pressure: 30.11"   Gusts: NA
Location:  34.3166°N, 106.801°W
Report Text: KONM 220955Z AUTO 18007KT 10SM SCT085 SCT120 11/10 A3011 RMK AO2 T01140100
Loading
Personal Weather Stations






























Interactive Weather Map
Tropical Storm Tracking
New forecast layout! Learn more

10-Day Weather Forecast

Advertisements
Track Severe Weather on mobile